createdAt,value
2022-12-16T00:01:30.302Z,31.65
2022-12-16T00:06:34.243Z,49.00
2022-12-16T00:11:36.929Z,34.95
2022-12-16T00:16:39.584Z,22.75
2022-12-16T00:21:42.390Z,42.25
2022-12-16T00:26:45.046Z,54.70
2022-12-16T00:31:48.481Z,45.60
2022-12-16T00:36:51.272Z,47.08
2022-12-16T00:41:54.033Z,46.47
2022-12-16T00:46:57.630Z,47.40
2022-12-16T00:52:00.327Z,36.95
2022-12-16T00:57:02.998Z,38.53
2022-12-16T01:02:05.828Z,46.40
2022-12-16T01:07:09.868Z,43.97
2022-12-16T01:12:12.660Z,49.00
2022-12-16T01:17:15.273Z,47.80
2022-12-16T01:22:18.309Z,39.78
2022-12-16T01:27:21.046Z,49.30
2022-12-16T01:32:23.773Z,54.80
2022-12-16T01:37:26.868Z,36.60
2022-12-16T01:42:31.546Z,44.63
2022-12-16T01:47:34.456Z,51.42
2022-12-16T01:52:41.554Z,98.20
2022-12-16T01:57:52.608Z,81.03
2022-12-16T02:02:58.377Z,62.40
2022-12-16T02:08:06.963Z,49.85
2022-12-16T02:13:42.594Z,45.10
2022-12-16T02:19:42.851Z,36.53
2022-12-16T02:25:23.261Z,48.43
2022-12-16T02:30:52.956Z,47.53
2022-12-16T02:36:18.480Z,25.88
2022-12-16T02:41:42.810Z,30.65
2022-12-16T02:46:56.287Z,31.02
2022-12-16T02:52:00.392Z,29.35
2022-12-16T02:57:09.046Z,92.13
2022-12-16T03:02:50.629Z,102.97
2022-12-16T03:07:55.564Z,32.50
2022-12-16T03:13:00.340Z,45.03
2022-12-16T03:18:04.368Z,57.55
2022-12-16T03:23:11.434Z,39.45
2022-12-16T03:28:30.072Z,53.42
2022-12-16T03:33:40.311Z,48.47
2022-12-16T03:38:45.504Z,53.45
2022-12-16T03:43:49.613Z,43.90
2022-12-16T03:48:52.788Z,27.05
2022-12-16T03:53:55.527Z,38.92
2022-12-16T03:58:58.573Z,47.17
2022-12-16T04:04:01.364Z,85.60
2022-12-16T04:09:04.467Z,58.40
2022-12-16T04:14:27.583Z,38.85
2022-12-16T04:19:51.853Z,55.53
2022-12-16T04:25:00.497Z,72.07
2022-12-16T04:30:21.241Z,49.33
2022-12-16T04:35:42.434Z,34.10
2022-12-16T04:41:03.868Z,56.30
2022-12-16T04:46:25.241Z,52.72
2022-12-16T04:51:46.282Z,42.17
2022-12-16T04:57:07.453Z,58.88
2022-12-16T05:02:28.779Z,59.90
2022-12-16T05:07:49.995Z,59.53
2022-12-16T05:13:14.340Z,60.53
2022-12-16T05:18:35.943Z,83.00
2022-12-16T05:23:57.019Z,88.05
2022-12-16T05:29:18.224Z,84.90
2022-12-16T05:34:39.527Z,69.67
2022-12-16T05:40:01.315Z,68.07
2022-12-16T05:45:22.978Z,72.95
2022-12-16T05:50:44.050Z,85.82
2022-12-16T05:56:05.382Z,87.70
2022-12-16T06:01:26.697Z,98.67
2022-12-16T06:06:47.787Z,111.55
2022-12-16T06:12:09.712Z,112.40
2022-12-16T06:17:30.586Z,96.10
2022-12-16T06:22:51.659Z,120.75
2022-12-16T06:28:13.078Z,124.93
2022-12-16T06:33:34.799Z,117.37
2022-12-16T06:38:56.189Z,95.95
2022-12-16T06:44:17.792Z,104.55
2022-12-16T06:49:38.954Z,113.30
2022-12-16T06:55:10.567Z,105.50
2022-12-16T07:00:31.774Z,78.53
2022-12-16T07:05:53.203Z,98.75
2022-12-16T07:11:16.923Z,78.70
2022-12-16T07:16:38.615Z,76.88
2022-12-16T07:21:59.659Z,109.43
2022-12-16T07:27:20.629Z,102.72
2022-12-16T07:32:42.013Z,96.68
2022-12-16T07:38:03.405Z,88.07
2022-12-16T07:43:24.675Z,82.70
2022-12-16T07:48:45.926Z,58.08
2022-12-16T07:54:07.131Z,77.80
2022-12-16T07:59:29.423Z,72.22
2022-12-16T08:10:12.262Z,54.77
2022-12-16T08:15:34.762Z,44.80
2022-12-16T08:20:56.531Z,137.35
2022-12-16T08:26:17.829Z,120.07
2022-12-16T08:31:38.947Z,69.55
2022-12-16T08:37:00.236Z,82.15
2022-12-16T08:42:21.429Z,69.50
2022-12-16T08:47:42.647Z,63.20
2022-12-16T08:53:04.057Z,67.72
2022-12-16T08:58:25.146Z,56.40
2022-12-16T09:03:46.542Z,69.53
2022-12-16T09:09:07.446Z,66.60
2022-12-16T09:14:28.888Z,57.65
2022-12-16T09:19:50.159Z,58.90
2022-12-16T09:25:11.864Z,47.28
2022-12-16T09:30:41.849Z,55.27
2022-12-16T09:36:23.067Z,62.60
2022-12-16T09:41:47.203Z,40.40
2022-12-16T09:47:14.086Z,71.25
2022-12-16T09:52:36.756Z,61.03
2022-12-16T09:57:57.836Z,60.60
2022-12-16T10:03:19.856Z,62.50
2022-12-16T10:09:04.695Z,67.97
2022-12-16T10:14:33.338Z,64.68
2022-12-16T10:20:23.369Z,82.70
2022-12-16T10:25:56.568Z,64.47
2022-12-16T10:31:17.784Z,83.18
2022-12-16T10:36:40.991Z,90.57
2022-12-16T10:42:05.739Z,93.47
2022-12-16T10:47:29.355Z,118.22
2022-12-16T10:52:50.541Z,119.22
2022-12-16T10:58:55.273Z,113.30
2022-12-16T11:04:16.432Z,127.18
2022-12-16T11:09:43.476Z,100.78
2022-12-16T11:15:28.734Z,128.65
2022-12-16T11:20:50.506Z,116.57
2022-12-16T11:26:36.836Z,70.93
2022-12-16T11:32:01.254Z,99.05
2022-12-16T11:37:22.884Z,102.00
2022-12-16T11:42:46.519Z,81.43
2022-12-16T11:48:11.814Z,84.60
2022-12-16T11:53:57.000Z,75.30
2022-12-16T11:59:22.077Z,69.03
2022-12-16T12:04:44.013Z,69.20
2022-12-16T12:10:13.844Z,72.07
2022-12-16T12:15:37.650Z,66.97
2022-12-16T12:21:16.211Z,64.32
2022-12-16T12:26:44.680Z,57.85
2022-12-16T12:32:11.480Z,61.92
2022-12-16T12:37:53.802Z,73.82
2022-12-16T12:43:17.206Z,65.22
2022-12-16T12:48:41.379Z,66.93
2022-12-16T12:54:05.644Z,82.82
2022-12-16T12:59:51.267Z,71.53
2022-12-16T13:05:12.396Z,84.93
2022-12-16T13:10:51.629Z,61.70
2022-12-16T13:16:12.902Z,84.70
2022-12-16T13:21:56.285Z,64.18
2022-12-16T13:27:19.855Z,82.97
2022-12-16T13:32:44.967Z,112.68
2022-12-16T13:38:35.799Z,104.63
2022-12-16T13:44:08.421Z,119.97
2022-12-16T13:50:04.471Z,83.38
2022-12-16T13:55:38.364Z,97.60
2022-12-16T14:01:00.941Z,80.90
2022-12-16T14:06:44.462Z,91.05
2022-12-16T14:12:15.487Z,102.07
2022-12-16T14:17:42.948Z,91.30
2022-12-16T14:23:06.872Z,95.03
2022-12-16T14:28:50.996Z,94.50
2022-12-16T14:34:13.486Z,104.22
2022-12-16T14:39:42.538Z,91.00
2022-12-16T14:45:04.704Z,93.18
2022-12-16T14:50:45.483Z,85.47
2022-12-16T14:56:07.174Z,86.45
2022-12-16T15:01:35.460Z,87.38
2022-12-16T15:07:05.708Z,92.82
2022-12-16T15:12:27.865Z,84.30
2022-12-16T15:18:01.231Z,87.63
2022-12-16T15:23:22.322Z,83.13
2022-12-16T15:28:58.646Z,78.63
2022-12-16T15:34:42.971Z,99.35
2022-12-16T15:40:04.360Z,77.22
2022-12-16T15:45:39.579Z,115.05
2022-12-16T15:51:00.752Z,63.20
2022-12-16T15:56:22.017Z,68.57
2022-12-16T16:02:05.363Z,93.60
2022-12-16T16:07:44.529Z,89.43
2022-12-16T16:13:05.865Z,124.65
2022-12-16T16:18:29.012Z,99.27
2022-12-16T16:23:50.653Z,125.07
2022-12-16T16:29:19.512Z,88.63
2022-12-16T16:34:40.740Z,107.90
2022-12-16T16:40:02.848Z,84.72
2022-12-16T16:45:25.090Z,108.25
2022-12-16T16:50:46.447Z,128.45
2022-12-16T16:56:18.114Z,97.43
2022-12-16T17:01:41.326Z,96.03
2022-12-16T17:07:02.416Z,112.70
2022-12-16T17:12:37.449Z,91.60
2022-12-16T17:17:58.591Z,95.22
2022-12-16T17:23:19.860Z,100.33
2022-12-16T17:28:41.367Z,97.15
2022-12-16T17:34:02.790Z,96.68
2022-12-16T17:39:25.044Z,75.88
2022-12-16T17:44:46.220Z,114.90
2022-12-16T17:50:07.525Z,116.53
2022-12-16T17:55:28.872Z,67.57
2022-12-16T18:00:50.202Z,54.80
2022-12-16T18:06:15.912Z,47.85
2022-12-16T18:11:38.840Z,78.75
2022-12-16T18:17:00.099Z,73.05
2022-12-16T18:22:22.494Z,89.97
2022-12-16T18:27:43.798Z,92.30
2022-12-16T18:33:05.129Z,57.90
2022-12-16T18:38:26.647Z,66.63
2022-12-16T18:43:47.773Z,63.57
2022-12-16T18:49:09.062Z,80.57
2022-12-16T18:54:30.162Z,75.40
2022-12-16T18:59:51.470Z,91.07
2022-12-16T19:05:12.471Z,94.00
2022-12-16T19:10:33.579Z,73.13
2022-12-16T19:15:54.859Z,81.27
2022-12-16T19:21:16.754Z,80.37
2022-12-16T19:31:58.901Z,63.00
2022-12-16T19:37:19.815Z,69.38
2022-12-16T19:42:40.920Z,56.85
2022-12-16T19:48:02.308Z,81.67
2022-12-16T19:53:24.634Z,56.67
2022-12-16T19:58:45.813Z,48.17
2022-12-16T20:04:09.601Z,80.47
2022-12-16T20:09:30.971Z,82.60
2022-12-16T20:14:53.324Z,77.00
2022-12-16T20:20:14.816Z,80.78
2022-12-16T20:25:36.364Z,93.03
2022-12-16T20:30:57.658Z,62.25
2022-12-16T20:36:20.985Z,47.97
2022-12-16T20:41:42.192Z,115.93
2022-12-16T20:47:03.416Z,108.97
2022-12-16T20:52:24.565Z,130.03
2022-12-16T20:57:45.921Z,127.53
2022-12-16T21:03:07.251Z,73.85
2022-12-16T21:08:28.616Z,97.77
2022-12-16T21:13:50.064Z,69.65
2022-12-16T21:19:11.767Z,92.40
2022-12-16T21:24:33.069Z,68.15
2022-12-16T21:29:54.320Z,95.10
2022-12-16T21:35:17.184Z,79.65
2022-12-16T21:40:38.370Z,53.07
2022-12-16T21:45:59.613Z,55.20
2022-12-16T21:51:20.679Z,69.35
2022-12-16T21:56:41.880Z,31.42
2022-12-16T22:02:03.442Z,87.75
2022-12-16T22:07:24.415Z,46.67
2022-12-16T22:12:45.544Z,89.50
2022-12-16T22:18:06.688Z,78.55
2022-12-16T22:23:28.528Z,83.93
2022-12-16T22:34:11.241Z,45.57
2022-12-16T22:39:32.630Z,60.95
2022-12-16T22:44:53.742Z,84.93
2022-12-16T22:50:17.897Z,88.95
2022-12-16T22:55:39.128Z,116.70
2022-12-16T23:01:00.230Z,86.33
2022-12-16T23:06:21.744Z,91.20
2022-12-16T23:11:45.434Z,74.13
2022-12-16T23:17:06.693Z,114.20
2022-12-16T23:22:27.874Z,150.13
2022-12-16T23:27:49.378Z,132.70
2022-12-16T23:33:20.836Z,121.78
2022-12-16T23:38:42.177Z,114.00
2022-12-16T23:44:03.975Z,75.43
2022-12-16T23:49:25.215Z,104.03
2022-12-16T23:54:46.457Z,101.47
